createdAt,value
2023-04-08T00:04:21.405Z,8.30
2023-04-08T00:09:21.211Z,6.40
2023-04-08T00:14:21.129Z,6.19
2023-04-08T00:19:21.102Z,4.69
2023-04-08T00:24:21.004Z,3.90
2023-04-08T00:29:20.945Z,3.09
2023-04-08T00:34:20.905Z,2.90
2023-04-08T00:39:20.856Z,3.00
2023-04-08T00:44:20.741Z,3.29
2023-04-08T00:49:20.674Z,3.40
2023-04-08T00:54:20.618Z,3.59
2023-04-08T00:59:20.551Z,4.19
2023-04-08T01:04:20.573Z,3.79
2023-04-08T01:09:20.413Z,5.00
2023-04-08T01:14:20.353Z,3.29
2023-04-08T01:19:20.282Z,3.20
2023-04-08T01:24:20.219Z,2.90
2023-04-08T01:29:20.153Z,3.40
2023-04-08T01:34:20.075Z,4.19
2023-04-08T01:39:20.027Z,2.70
2023-04-08T01:44:19.947Z,2.40
2023-04-08T01:49:19.892Z,5.09
2023-04-08T01:54:19.825Z,3.40
2023-04-08T01:59:19.763Z,4.00
2023-04-08T02:04:19.764Z,3.79
2023-04-08T02:09:19.641Z,4.59
2023-04-08T02:14:19.595Z,2.59
2023-04-08T02:19:19.497Z,4.30
2023-04-08T02:24:19.439Z,3.40
2023-04-08T02:29:19.383Z,3.90
2023-04-08T02:34:19.309Z,5.00
2023-04-08T02:39:19.242Z,2.59
2023-04-08T02:44:19.169Z,3.29
2023-04-08T02:49:19.106Z,3.29
2023-04-08T02:54:19.033Z,4.00
2023-04-08T02:59:18.976Z,3.50
2023-04-08T03:04:18.903Z,3.20
2023-04-08T03:09:18.848Z,4.19
2023-04-08T03:14:18.790Z,4.50
2023-04-08T03:19:18.716Z,5.40
2023-04-08T03:24:18.640Z,7.00
2023-04-08T03:29:18.584Z,5.00
2023-04-08T03:34:18.509Z,4.59
2023-04-08T03:39:18.462Z,5.69
2023-04-08T03:44:18.380Z,5.00
2023-04-08T03:49:18.340Z,4.50
2023-04-08T03:54:18.249Z,6.50
2023-04-08T03:59:18.185Z,4.30
2023-04-08T04:04:18.301Z,4.59
2023-04-08T04:09:18.065Z,6.50
2023-04-08T04:14:17.982Z,5.59
2023-04-08T04:19:17.939Z,4.00
2023-04-08T04:24:17.846Z,5.09
2023-04-08T04:29:17.804Z,4.59
2023-04-08T04:34:17.719Z,5.50
2023-04-08T04:39:17.670Z,4.69
2023-04-08T04:44:17.588Z,6.00
2023-04-08T04:49:17.529Z,5.40
2023-04-08T04:54:17.461Z,6.40
2023-04-08T04:59:17.402Z,4.50
2023-04-08T05:04:17.325Z,5.00
2023-04-08T05:09:17.271Z,3.50
2023-04-08T05:14:17.200Z,4.09
2023-04-08T05:19:17.144Z,5.40
2023-04-08T05:24:17.077Z,4.09
2023-04-08T05:29:17.024Z,4.19
2023-04-08T05:34:16.943Z,4.40
2023-04-08T05:39:16.896Z,4.80
2023-04-08T05:44:16.818Z,4.09
2023-04-08T05:49:16.766Z,3.90
2023-04-08T05:54:16.680Z,5.00
2023-04-08T05:59:16.629Z,4.69
2023-04-08T06:04:16.659Z,4.69
2023-04-08T06:09:16.484Z,5.90
2023-04-08T06:14:16.426Z,7.19
2023-04-08T06:19:16.783Z,4.80
2023-04-08T06:24:16.284Z,6.40
2023-04-08T06:29:16.212Z,5.90
2023-04-08T06:34:16.156Z,5.69
2023-04-08T06:39:16.085Z,4.90
2023-04-08T06:44:16.016Z,7.00
2023-04-08T06:49:15.957Z,5.90
2023-04-08T06:54:15.887Z,6.00
2023-04-08T06:59:15.825Z,5.80
2023-04-08T07:04:15.800Z,5.00
2023-04-08T07:09:15.697Z,4.19
2023-04-08T07:14:15.623Z,5.30
2023-04-08T07:19:15.595Z,5.69
2023-04-08T07:24:15.505Z,5.90
2023-04-08T07:29:15.432Z,6.30
2023-04-08T07:34:15.370Z,5.69
2023-04-08T07:39:15.303Z,9.80
2023-04-08T07:44:15.237Z,8.80
2023-04-08T07:49:15.167Z,7.30
2023-04-08T07:54:15.118Z,13.10
2023-04-08T07:59:15.048Z,10.39
2023-04-08T08:04:15.071Z,11.89
2023-04-08T08:09:14.906Z,11.30
2023-04-08T08:14:14.836Z,13.10
2023-04-08T08:19:14.789Z,14.80
2023-04-08T08:24:14.712Z,16.00
2023-04-08T08:29:14.652Z,13.60
2023-04-08T08:34:14.575Z,15.69
2023-04-08T08:39:14.531Z,10.19
2023-04-08T08:44:14.446Z,10.60
2023-04-08T08:49:14.387Z,11.69
2023-04-08T08:54:14.372Z,10.89
2023-04-08T09:01:03.683Z,13.60
2023-04-08T09:06:58.274Z,18.00
2023-04-08T09:11:58.196Z,14.69
2023-04-08T09:16:58.141Z,11.80
2023-04-08T09:21:58.075Z,15.19
2023-04-08T09:26:58.008Z,16.89
2023-04-08T09:31:58.162Z,12.10
2023-04-08T09:36:57.883Z,16.39
2023-04-08T09:41:57.802Z,14.19
2023-04-08T09:46:57.741Z,20.00
2023-04-08T09:51:57.678Z,15.60
2023-04-08T09:56:57.609Z,19.29
2023-04-08T10:01:57.673Z,15.39
2023-04-08T10:06:57.479Z,15.80
2023-04-08T10:11:57.400Z,19.00
2023-04-08T10:16:57.384Z,19.60
2023-04-08T10:21:57.274Z,17.79
2023-04-08T10:26:57.217Z,20.89
2023-04-08T10:31:57.152Z,24.89
2023-04-08T10:36:57.105Z,26.89
2023-04-08T10:41:56.994Z,24.39
2023-04-08T10:46:56.946Z,27.50
2023-04-08T10:51:56.873Z,25.00
2023-04-08T10:56:56.806Z,27.20
2023-04-08T11:01:56.846Z,22.79
2023-04-08T11:06:56.676Z,25.29
2023-04-08T11:11:56.599Z,18.79
2023-04-08T11:16:56.542Z,20.79
2023-04-08T11:21:56.467Z,22.39
2023-04-08T11:26:56.418Z,22.60
2023-04-08T11:31:56.335Z,24.20
2023-04-08T11:36:56.336Z,26.29
2023-04-08T11:41:56.202Z,22.29
2023-04-08T11:46:56.341Z,24.60
2023-04-08T11:51:56.073Z,27.00
2023-04-08T11:56:56.008Z,24.60
2023-04-08T12:01:55.969Z,27.00
2023-04-08T12:07:50.536Z,31.29
2023-04-08T12:12:50.483Z,28.20
2023-04-08T12:19:39.740Z,28.89
2023-04-08T12:24:39.664Z,21.70
2023-04-08T12:29:39.621Z,24.89
2023-04-08T12:34:39.551Z,24.39
2023-04-08T12:39:39.475Z,23.89
2023-04-08T12:44:39.408Z,24.79
2023-04-08T12:54:39.285Z,24.39
2023-04-08T12:59:39.209Z,25.70
2023-04-08T13:04:39.147Z,23.20
2023-04-08T13:09:39.074Z,22.60
2023-04-08T13:14:39.012Z,21.20
2023-04-08T13:19:38.951Z,23.20
2023-04-08T13:24:38.879Z,21.10
2023-04-08T13:29:38.825Z,20.29
2023-04-08T13:34:38.751Z,20.89
2023-04-08T13:39:38.687Z,24.20
2023-04-08T13:44:38.611Z,24.29
2023-04-08T13:49:38.559Z,24.79
2023-04-08T13:54:38.474Z,24.79
2023-04-08T13:59:38.430Z,20.20
2023-04-08T14:04:38.413Z,25.29
2023-04-08T14:09:38.292Z,20.60
2023-04-08T14:14:38.207Z,24.60
2023-04-08T14:19:38.162Z,20.29
2023-04-08T14:24:38.079Z,19.39
2023-04-08T14:29:38.019Z,19.00
2023-04-08T14:34:37.944Z,21.00
2023-04-08T14:39:37.891Z,18.20
2023-04-08T14:44:37.816Z,19.39
2023-04-08T14:49:37.769Z,19.50
2023-04-08T14:54:37.682Z,15.00
2023-04-08T14:59:37.624Z,20.29
2023-04-08T15:04:37.567Z,19.10
2023-04-08T15:09:37.506Z,26.89
2023-04-08T15:16:32.914Z,22.89
2023-04-08T15:21:26.677Z,18.89
2023-04-08T15:26:26.614Z,19.70
2023-04-08T15:31:26.621Z,17.00
2023-04-08T15:36:26.513Z,16.00
2023-04-08T15:41:26.408Z,16.50
2023-04-08T15:46:26.376Z,16.39
2023-04-08T15:51:26.275Z,16.20
2023-04-08T15:56:26.198Z,17.79
2023-04-08T16:01:26.156Z,18.60
2023-04-08T16:06:26.063Z,21.39
2023-04-08T16:11:26.004Z,20.60
2023-04-08T16:16:25.954Z,17.39
2023-04-08T16:21:25.873Z,16.89
2023-04-08T16:26:25.806Z,16.00
2023-04-08T16:31:25.769Z,15.10
2023-04-08T16:36:25.667Z,15.80
2023-04-08T16:41:25.605Z,14.00
2023-04-08T16:46:25.540Z,14.69
2023-04-08T16:51:25.483Z,14.69
2023-04-08T16:56:25.395Z,17.29
2023-04-08T17:01:25.495Z,15.80
2023-04-08T17:06:25.265Z,14.39
2023-04-08T17:11:25.215Z,17.39
2023-04-08T17:16:25.177Z,16.00
2023-04-08T17:21:25.093Z,15.69
2023-04-08T17:26:25.005Z,17.39
2023-04-08T17:31:24.981Z,15.50
2023-04-08T17:36:24.910Z,16.60
2023-04-08T17:41:38.069Z,14.00
2023-04-08T17:46:25.911Z,14.50
2023-04-08T17:51:24.668Z,16.20
2023-04-08T17:56:24.595Z,17.50
2023-04-08T18:01:24.560Z,18.50
2023-04-08T18:06:24.464Z,17.20
2023-04-08T18:11:24.411Z,16.79
2023-04-08T18:16:24.371Z,18.50
2023-04-08T18:21:24.282Z,16.89
2023-04-08T18:26:24.193Z,20.60
2023-04-08T18:31:24.210Z,16.20
2023-04-08T18:36:24.065Z,19.50
2023-04-08T18:41:24.022Z,18.29
2023-04-08T18:46:23.970Z,19.60
2023-04-08T18:51:23.868Z,21.79
2023-04-08T18:56:23.800Z,17.39
2023-04-08T19:01:23.790Z,18.60
2023-04-08T19:06:23.814Z,19.60
2023-04-08T19:11:23.851Z,22.10
2023-04-08T19:16:23.595Z,21.60
2023-04-08T19:21:23.474Z,18.29
2023-04-08T19:26:23.392Z,17.29
2023-04-08T19:31:23.385Z,23.00
2023-04-08T19:36:23.261Z,22.10
2023-04-08T19:41:23.218Z,25.20
2023-04-08T19:46:23.183Z,21.00
2023-04-08T19:51:23.087Z,21.50
2023-04-08T19:56:22.993Z,22.10
2023-04-08T20:01:22.970Z,23.50
2023-04-08T20:06:22.923Z,23.10
2023-04-08T20:11:22.841Z,23.60
2023-04-08T20:16:22.789Z,23.79
2023-04-08T20:21:22.672Z,22.20
2023-04-08T20:26:22.603Z,22.20
2023-04-08T20:31:22.581Z,22.70
2023-04-08T20:36:22.463Z,22.50
2023-04-08T20:41:22.409Z,23.10
2023-04-08T20:46:22.396Z,25.60
2023-04-08T20:51:22.283Z,29.89
2023-04-08T20:56:22.198Z,30.29
2023-04-08T21:01:22.252Z,32.40
2023-04-08T21:06:22.123Z,30.70
2023-04-08T21:11:22.016Z,29.00
2023-04-08T21:16:21.951Z,25.00
2023-04-08T21:21:21.895Z,24.50
2023-04-08T21:26:21.805Z,23.00
2023-04-08T21:31:21.753Z,25.29
2023-04-08T21:36:21.673Z,26.20
2023-04-08T21:41:21.600Z,25.29
2023-04-08T21:46:21.602Z,25.50
2023-04-08T21:51:21.470Z,24.70
2023-04-08T21:56:21.403Z,24.29
2023-04-08T22:01:21.390Z,23.39
2023-04-08T22:06:31.518Z,22.20
2023-04-08T22:11:22.227Z,23.10
2023-04-08T22:16:21.291Z,25.89
2023-04-08T22:21:21.090Z,23.70
2023-04-08T22:26:20.995Z,26.29
2023-04-08T22:31:21.271Z,23.70
2023-04-08T22:36:20.862Z,27.50
2023-04-08T22:41:20.866Z,25.20
2023-04-08T22:46:20.832Z,25.50
2023-04-08T22:51:20.671Z,25.89
2023-04-08T22:56:20.616Z,22.10
2023-04-08T23:01:20.565Z,20.10
2023-04-08T23:06:20.480Z,24.29
2023-04-08T23:11:20.403Z,23.10
2023-04-08T23:16:20.354Z,21.10
2023-04-08T23:21:20.293Z,22.89
2023-04-08T23:26:20.204Z,24.70
2023-04-08T23:31:20.171Z,22.50
2023-04-08T23:36:20.063Z,25.60
2023-04-08T23:41:20.009Z,20.89
2023-04-08T23:46:20.007Z,25.39
2023-04-08T23:51:19.883Z,27.20
2023-04-08T23:56:19.800Z,25.00
